Time;durP1;ratioP1;P1;durP2;ratioP2;P2;SDS_P1;SDS_P2;PMS_P1;PMS_P2;Temp;Humidity;BMP_temperature;BMP_pressure;BME280_temperature;BME280_humidity;BME280_pressure;Samples;Min_cycle;Max_cycle;Signal;HPM_P1;HPM_P2
2023/03/01 00:00:26;;;;;;;26.00;16.90;;;;;;;4.60;92.03;101457.13;5004680;28;20044;-74
2023/03/01 00:02:51;;;;;;;28.85;17.30;;;;;;;4.60;92.11;101459.78;5007454;28;20396;-72
2023/03/01 00:05:17;;;;;;;30.60;18.98;;;;;;;4.62;91.71;101462.34;5008117;28;20675;-72
2023/03/01 00:07:42;;;;;;;28.58;16.98;;;;;;;4.63;91.44;101466.72;5006251;28;20177;-72
2023/03/01 00:10:08;;;;;;;29.38;16.98;;;;;;;4.60;90.96;101461.56;5006032;28;20026;-72
2023/03/01 00:12:36;;;;;;;33.13;18.63;;;;;;;4.60;90.55;101464.22;5006412;28;20188;-72
2023/03/01 00:15:02;;;;;;;34.40;20.45;;;;;;;4.59;90.29;101460.69;5005846;28;20029;-72
2023/03/01 00:17:27;;;;;;;32.25;19.52;;;;;;;4.61;90.08;101458.81;5005017;28;20036;-65
2023/03/01 00:19:53;;;;;;;31.63;18.50;;;;;;;4.61;90.26;101457.94;5007189;28;20026;-64
2023/03/01 00:22:18;;;;;;;33.08;19.75;;;;;;;4.61;90.17;101464.16;5006436;28;20041;-65
2023/03/01 00:24:43;;;;;;;29.60;17.85;;;;;;;4.54;90.00;101446.75;5006579;28;20403;-64
2023/03/01 00:27:09;;;;;;;31.58;17.95;;;;;;;4.49;90.10;101437.28;5004314;28;20533;-65
2023/03/01 00:29:35;;;;;;;31.10;18.88;;;;;;;4.63;89.96;101461.41;5005941;28;20516;-65
2023/03/01 00:32:00;;;;;;;29.58;18.20;;;;;;;4.52;90.02;101435.34;5007331;28;20030;-65
2023/03/01 00:34:26;;;;;;;32.22;18.85;;;;;;;4.46;89.65;101424.13;5006720;28;20044;-65
2023/03/01 00:36:51;;;;;;;30.10;18.35;;;;;;;4.57;89.59;101430.69;5005468;28;20022;-65
2023/03/01 00:39:16;;;;;;;31.27;20.70;;;;;;;4.56;89.38;101430.75;5005155;28;20365;-66
2023/03/01 00:41:42;;;;;;;36.08;18.42;;;;;;;4.64;89.59;101447.19;5005517;28;20511;-71
2023/03/01 00:44:08;;;;;;;33.20;18.65;;;;;;;4.66;89.46;101450.66;5004579;28;20049;-72
2023/03/01 00:46:34;;;;;;;33.40;18.35;;;;;;;4.58;89.22;101428.91;5005826;28;20383;-71
2023/03/01 00:49:01;;;;;;;33.28;19.65;;;;;;;4.62;89.13;101436.63;5007418;28;20036;-72
2023/03/01 00:51:28;;;;;;;32.42;19.23;;;;;;;4.65;88.95;101444.47;5005715;28;20478;-72
2023/03/01 00:53:56;;;;;;;31.05;19.55;;;;;;;4.66;88.85;101430.28;5007104;28;20025;-72
2023/03/01 00:56:22;;;;;;;27.52;17.25;;;;;;;4.70;89.07;101441.59;5008817;28;20025;-71
2023/03/01 00:58:48;;;;;;;29.88;18.00;;;;;;;4.67;88.89;101437.31;5009362;28;20132;-72
2023/03/01 01:01:17;;;;;;;27.80;16.70;;;;;;;4.66;88.46;101424.97;5011348;28;20068;-72
2023/03/01 01:04:03;;;;;;;26.80;17.30;;;;;;;4.68;88.78;101436.34;5009270;28;20053;-71
2023/03/01 01:06:35;;;;;;;28.23;17.55;;;;;;;4.71;88.37;101432.72;5007343;28;20033;-72
2023/03/01 01:09:02;;;;;;;29.60;17.77;;;;;;;4.67;88.09;101418.69;5007196;28;20033;-72
2023/03/01 01:11:29;;;;;;;29.13;17.15;;;;;;;4.59;88.01;101396.91;5008685;28;20383;-72
2023/03/01 01:13:55;;;;;;;30.38;17.23;;;;;;;4.68;88.06;101411.59;5008822;28;20045;-72
2023/03/01 01:16:23;;;;;;;28.33;17.42;;;;;;;4.71;87.74;101417.63;5007386;28;20125;-71
2023/03/01 01:18:49;;;;;;;27.40;17.00;;;;;;;4.70;87.22;101418.56;5008685;28;20476;-72
2023/03/01 01:21:18;;;;;;;29.83;18.48;;;;;;;4.71;86.57;101412.31;5008858;28;20396;-72
2023/03/01 01:23:45;;;;;;;28.63;17.63;;;;;;;4.70;86.26;101412.38;5006140;28;20575;-72
2023/03/01 01:26:19;;;;;;;29.23;17.67;;;;;;;4.71;86.15;101416.78;5009853;28;20033;-72
2023/03/01 01:28:45;;;;;;;30.27;17.55;;;;;;;4.69;85.74;101408.88;5010668;28;20069;-72
2023/03/01 01:31:11;;;;;;;29.58;18.65;;;;;;;4.71;85.55;101417.63;5008337;28;20413;-72
2023/03/01 01:33:37;;;;;;;31.60;17.90;;;;;;;4.70;84.63;101417.69;5008575;28;20399;-71
2023/03/01 01:36:04;;;;;;;30.05;18.58;;;;;;;4.74;83.96;101417.47;5011349;28;20049;-72
2023/03/01 01:38:29;;;;;;;30.10;17.60;;;;;;;4.77;83.64;101415.63;5006569;28;20614;-72
2023/03/01 01:40:55;;;;;;;28.80;18.15;;;;;;;4.77;83.30;101419.13;5009449;28;20029;-72
2023/03/01 01:43:20;;;;;;;29.08;18.58;;;;;;;4.78;83.53;101418.22;5008697;28;20099;-71
2023/03/01 01:45:46;;;;;;;30.15;17.77;;;;;;;4.78;83.48;101410.25;5009293;28;20034;-72
2023/03/01 01:48:17;;;;;;;29.63;18.35;;;;;;;4.74;83.50;101408.63;5008506;28;20032;-72
2023/03/01 01:50:44;;;;;;;28.63;17.40;;;;;;;4.77;83.86;101402.34;5008669;28;20026;-71
2023/03/01 01:53:14;;;;;;;31.08;17.90;;;;;;;4.73;84.19;101399.81;5012589;28;20040;-71
2023/03/01 01:55:44;;;;;;;27.95;16.50;;;;;;;4.80;83.78;101397.72;5006513;28;20033;-72
2023/03/01 01:58:13;;;;;;;31.33;17.77;;;;;;;4.82;83.67;101409.16;5009675;28;20030;-71
2023/03/01 02:00:39;;;;;;;28.92;18.50;;;;;;;4.81;83.47;101390.63;5006994;28;20022;-72
2023/03/01 02:03:11;;;;;;;28.25;17.42;;;;;;;4.77;83.33;101386.41;5007684;28;20125;-72
2023/03/01 02:05:47;;;;;;;31.65;18.30;;;;;;;4.81;83.49;101398.59;5010724;28;20022;-72
2023/03/01 02:08:14;;;;;;;30.80;18.00;;;;;;;4.82;83.31;101401.19;5008791;28;20045;-72
2023/03/01 02:10:40;;;;;;;28.70;17.02;;;;;;;4.82;83.18;101398.53;5007595;28;20046;-72
2023/03/01 02:13:06;;;;;;;26.40;17.23;;;;;;;4.81;83.41;101390.63;5010609;28;20057;-71
2023/03/01 02:15:34;;;;;;;29.83;17.73;;;;;;;4.82;83.52;101387.91;5006242;28;20026;-71
2023/03/01 02:18:01;;;;;;;30.20;18.83;;;;;;;4.82;83.41;101382.56;5007935;28;20105;-72
2023/03/01 02:20:27;;;;;;;31.98;19.98;;;;;;;4.83;83.35;101378.97;5007601;28;20058;-72
2023/03/01 02:22:54;;;;;;;31.73;18.80;;;;;;;4.86;83.27;101378.00;5012128;28;20432;-72
2023/03/01 02:25:27;;;;;;;29.63;17.20;;;;;;;4.74;82.70;101348.38;5005501;28;20050;-72
2023/03/01 02:27:55;;;;;;;26.80;17.35;;;;;;;4.86;82.25;101367.34;5006860;28;20038;-72
2023/03/01 02:30:22;;;;;;;30.33;18.02;;;;;;;4.86;82.41;101370.84;5009176;28;20357;-72
2023/03/01 02:32:49;;;;;;;29.73;17.23;;;;;;;4.89;82.14;101364.53;5009802;28;20040;-72
2023/03/01 02:35:17;;;;;;;29.85;17.85;;;;;;;4.84;82.45;101354.16;5007326;28;20029;-72
2023/03/01 02:37:44;;;;;;;26.60;16.92;;;;;;;4.85;82.47;101358.50;5007212;28;20041;-72
2023/03/01 02:40:17;;;;;;;32.35;18.75;;;;;;;4.82;82.68;101356.00;5005712;28;20080;-72
2023/03/01 02:42:55;;;;;;;28.27;17.38;;;;;;;4.80;82.33;101344.56;5007302;28;20038;-71
2023/03/01 02:45:21;;;;;;;29.40;18.42;;;;;;;4.88;82.50;101363.69;5009040;28;20407;-71
2023/03/01 02:47:46;;;;;;;30.25;18.75;;;;;;;4.82;82.61;101349.81;5007334;28;20026;-72
2023/03/01 02:50:19;;;;;;;27.63;17.77;;;;;;;4.91;82.47;101366.19;5005382;28;20272;-72
2023/03/01 02:53:11;;;;;;;28.30;16.90;;;;;;;4.90;82.08;101358.28;5007651;28;20049;-65
2023/03/01 02:55:36;;;;;;;26.10;16.58;;;;;;;4.85;82.43;101354.97;5007118;28;20594;-65
2023/03/01 02:58:03;;;;;;;29.83;18.00;;;;;;;4.81;82.36;101345.44;5008547;28;20100;-65
2023/03/01 03:00:34;;;;;;;30.77;18.13;;;;;;;4.81;82.49;101345.44;5006766;28;20065;-65
2023/03/01 03:02:59;;;;;;;28.85;16.65;;;;;;;4.89;82.52;101354.75;5006351;28;20041;-64
2023/03/01 03:05:30;;;;;;;26.95;17.35;;;;;;;4.86;82.65;101354.91;5004970;28;20026;-66
2023/03/01 03:07:57;;;;;;;28.45;17.02;;;;;;;4.82;82.47;101336.53;5006415;28;20041;-65
2023/03/01 03:10:26;;;;;;;27.40;17.15;;;;;;;4.88;82.92;101345.09;5005294;28;20049;-65
2023/03/01 03:13:00;;;;;;;26.50;16.35;;;;;;;4.78;83.09;101339.34;5007243;28;20052;-71
2023/03/01 03:15:27;;;;;;;28.38;16.52;;;;;;;4.87;83.32;101345.16;5006604;28;20022;-72
2023/03/01 03:17:53;;;;;;;28.33;16.95;;;;;;;4.87;83.30;101339.84;5008301;28;20104;-72
2023/03/01 03:20:21;;;;;;;26.55;16.67;;;;;;;4.84;83.50;101332.88;5006072;28;20137;-72
2023/03/01 03:22:52;;;;;;;29.20;18.40;;;;;;;4.72;83.44;101313.06;5008589;28;20793;-72
2023/03/01 03:25:19;;;;;;;26.42;16.67;;;;;;;4.87;83.23;101327.38;5007081;28;20036;-72
2023/03/01 03:27:48;;;;;;;26.35;16.75;;;;;;;4.89;82.93;101330.84;5008300;28;20479;-72
2023/03/01 03:30:18;;;;;;;26.35;16.65;;;;;;;4.88;83.14;101322.94;5005590;28;20113;-72
2023/03/01 03:32:51;;;;;;;29.20;16.92;;;;;;;4.81;83.00;101309.09;5006566;28;20524;-71
2023/03/01 03:35:18;;;;;;;29.27;16.85;;;;;;;4.87;82.85;101323.91;5006221;28;20387;-72
2023/03/01 03:38:02;;;;;;;24.52;15.25;;;;;;;4.83;83.28;101309.88;5006327;28;20128;-72
2023/03/01 03:40:39;;;;;;;26.58;16.42;;;;;;;4.84;82.77;101302.78;5004793;28;20476;-72
2023/03/01 03:43:08;;;;;;;28.35;16.65;;;;;;;4.92;82.85;101313.88;5006315;28;20048;-71
2023/03/01 03:45:34;;;;;;;29.75;16.65;;;;;;;4.73;83.24;101287.34;5006361;28;20575;-71
2023/03/01 03:48:01;;;;;;;26.83;16.27;;;;;;;4.85;83.49;101310.69;5006659;28;20395;-72
2023/03/01 03:50:27;;;;;;;30.00;17.67;;;;;;;4.80;83.51;101302.06;5004890;28;20080;-71
2023/03/01 03:52:52;;;;;;;29.88;16.15;;;;;;;4.74;83.71;101294.38;5006326;28;20488;-72
2023/03/01 03:55:19;;;;;;;28.48;16.60;;;;;;;4.83;83.80;101303.72;5006538;28;20053;-72
2023/03/01 03:57:53;;;;;;;24.95;16.63;;;;;;;4.84;83.86;101316.94;5008129;28;20042;-64
2023/03/01 04:00:21;;;;;;;30.50;17.63;;;;;;;4.78;83.63;101302.13;5004962;28;20076;-65
2023/03/01 04:02:47;;;;;;;28.42;16.65;;;;;;;4.86;83.62;101308.91;5008657;28;20038;-65
2023/03/01 04:05:15;;;;;;;26.95;17.05;;;;;;;4.62;83.80;101266.59;5003029;28;20025;-65
2023/03/01 04:07:41;;;;;;;28.60;18.55;;;;;;;4.74;84.00;101294.38;5005666;28;20033;-65
2023/03/01 04:10:10;;;;;;;31.13;17.15;;;;;;;4.81;84.05;101310.91;5004656;28;20034;-65
2023/03/01 04:12:36;;;;;;;28.83;17.58;;;;;;;4.80;84.34;101306.53;5007483;28;20030;-65
2023/03/01 04:15:12;;;;;;;28.98;18.33;;;;;;;4.67;84.47;101279.66;5006768;28;20084;-64
2023/03/01 04:17:42;;;;;;;29.70;16.77;;;;;;;4.77;84.55;101302.19;5005829;28;20427;-65
2023/03/01 04:20:24;;;;;;;29.00;17.58;;;;;;;4.82;84.79;101307.28;5005984;28;20065;-65
2023/03/01 04:23:15;;;;;;;27.88;17.83;;;;;;;4.82;84.82;101305.50;5008326;28;20149;-65
2023/03/01 04:25:55;;;;;;;30.65;18.77;;;;;;;4.72;84.95;101290.94;5005341;28;20065;-65
2023/03/01 04:28:27;;;;;;;30.33;17.88;;;;;;;4.81;85.36;101309.09;5005112;28;20061;-72
2023/03/01 04:30:54;;;;;;;28.35;17.98;;;;;;;4.80;85.08;101307.38;5009127;28;20045;-72
2023/03/01 04:33:20;;;;;;;30.73;18.85;;;;;;;4.77;85.11;101304.84;5009474;28;20091;-72
2023/03/01 04:35:45;;;;;;;29.88;18.00;;;;;;;4.67;85.63;101290.28;5008998;28;20038;-72
2023/03/01 04:38:11;;;;;;;31.75;19.48;;;;;;;4.75;85.81;101314.72;5009448;28;20079;-73
2023/03/01 04:40:37;;;;;;;33.83;19.90;;;;;;;4.77;85.79;101312.81;5009877;28;20037;-72
2023/03/01 04:43:03;;;;;;;30.10;19.13;;;;;;;4.71;86.22;101300.72;5007453;28;20499;-71
2023/03/01 04:45:29;;;;;;;34.67;19.85;;;;;;;4.72;86.43;101291.81;5008424;28;20756;-71
2023/03/01 04:47:57;;;;;;;31.17;19.35;;;;;;;4.71;86.53;101306.03;5009424;28;20401;-72
2023/03/01 04:50:23;;;;;;;33.10;19.85;;;;;;;4.69;86.20;101304.38;5014507;28;20460;-72
2023/03/01 04:52:49;;;;;;;32.20;19.15;;;;;;;4.69;86.29;101302.59;5012654;28;20091;-72
2023/03/01 04:55:15;;;;;;;31.67;18.83;;;;;;;4.66;86.51;101296.56;5007496;28;20088;-72
2023/03/01 04:57:41;;;;;;;33.45;18.80;;;;;;;4.68;86.46;101306.16;5008566;28;20105;-71
2023/03/01 05:00:21;;;;;;;32.42;19.48;;;;;;;4.71;86.28;101307.84;5011633;28;20053;-72
2023/03/01 05:02:54;;;;;;;31.65;18.73;;;;;;;4.67;86.32;101308.91;5015354;28;20404;-72
2023/03/01 05:05:32;;;;;;;34.53;19.63;;;;;;;4.72;86.16;101325.50;5011855;28;20103;-72
2023/03/01 05:08:00;;;;;;;32.90;19.20;;;;;;;4.70;86.07;101320.25;5009349;28;20033;-71
2023/03/01 05:10:28;;;;;;;31.35;18.85;;;;;;;4.68;85.98;101318.59;5014488;28;20018;-72
2023/03/01 05:12:57;;;;;;;33.85;19.67;;;;;;;4.68;85.78;101315.94;5010629;28;20113;-71
2023/03/01 05:15:25;;;;;;;29.90;19.17;;;;;;;4.69;85.92;101313.22;5012055;28;20018;-71
2023/03/01 05:17:51;;;;;;;31.65;18.92;;;;;;;4.68;86.03;101321.25;5011214;28;20026;-71
2023/03/01 05:20:17;;;;;;;33.05;19.38;;;;;;;4.68;86.18;101326.56;5012460;28;20045;-72
2023/03/01 05:22:43;;;;;;;32.55;18.67;;;;;;;4.66;86.37;101318.69;5009710;28;20046;-71
2023/03/01 05:25:09;;;;;;;31.60;18.90;;;;;;;4.67;86.56;101324.84;5010676;28;20037;-72
2023/03/01 05:27:35;;;;;;;37.42;19.08;;;;;;;4.70;86.65;101333.53;5010403;28;20036;-72
2023/03/01 05:30:13;;;;;;;32.83;19.38;;;;;;;4.69;86.70;101333.59;5015363;28;20390;-72
2023/03/01 05:32:40;;;;;;;32.33;19.10;;;;;;;4.57;86.69;101315.59;5017980;28;20416;-71
2023/03/01 05:35:05;;;;;;;31.92;17.88;;;;;;;4.43;86.72;101302.97;5008246;28;20037;-71
2023/03/01 05:37:31;;;;;;;31.23;18.55;;;;;;;4.57;86.59;101323.56;5012526;28;20032;-65
2023/03/01 05:39:56;;;;;;;36.47;20.30;;;;;;;4.62;86.65;101337.50;5008535;28;20030;-65
2023/03/01 05:42:22;;;;;;;34.33;20.48;;;;;;;4.62;86.33;101338.34;5008060;28;20028;-65
2023/03/01 05:44:47;;;;;;;35.35;19.95;;;;;;;4.52;86.75;101321.09;5009336;28;20025;-65
2023/03/01 05:47:13;;;;;;;32.85;19.52;;;;;;;4.57;87.07;101328.88;5002014;28;20041;-65
2023/03/01 05:49:39;;;;;;;32.20;18.80;;;;;;;4.49;86.64;101320.41;5007097;28;20061;-64
2023/03/01 05:52:04;;;;;;;29.75;18.92;;;;;;;4.63;86.51;101344.53;5005907;28;20121;-65
2023/03/01 05:54:30;;;;;;;29.70;18.55;;;;;;;4.62;86.43;101345.47;5004740;28;20029;-65
2023/03/01 05:56:56;;;;;;;35.97;19.42;;;;;;;4.62;86.41;101332.19;5006325;28;20033;-65
2023/03/01 05:59:21;;;;;;;31.13;20.10;;;;;;;4.57;86.23;101332.41;5008401;28;20041;-65
2023/03/01 06:01:47;;;;;;;33.00;20.17;;;;;;;4.66;85.76;101350.56;5006032;28;20030;-64
2023/03/01 06:04:12;;;;;;;34.65;20.08;;;;;;;4.57;85.96;101345.69;5006531;28;20050;-64
2023/03/01 06:06:38;;;;;;;36.13;21.02;;;;;;;4.53;85.89;101327.28;5007707;28;20060;-65
2023/03/01 06:09:06;;;;;;;33.92;19.55;;;;;;;4.65;85.88;101345.31;5009337;28;20111;-65
2023/03/01 06:11:34;;;;;;;30.35;19.27;;;;;;;4.71;85.24;101360.97;5008324;28;20041;-64
2023/03/01 06:13:59;;;;;;;34.70;19.52;;;;;;;4.61;85.05;101349.03;5005409;28;20037;-64
2023/03/01 06:16:24;;;;;;;35.72;19.38;;;;;;;4.65;84.87;101353.28;5006838;28;20022;-64
2023/03/01 06:18:50;;;;;;;30.80;18.75;;;;;;;4.54;84.35;101343.16;5006617;28;20034;-64
2023/03/01 06:21:16;;;;;;;32.13;19.17;;;;;;;4.63;84.58;101352.50;5006772;28;20784;-64
2023/03/01 06:23:41;;;;;;;32.83;19.33;;;;;;;4.64;84.28;101357.72;5005858;28;20056;-64
2023/03/01 06:26:08;;;;;;;29.98;18.15;;;;;;;4.62;84.42;101348.97;5008800;28;20029;-64
2023/03/01 06:28:34;;;;;;;30.02;18.55;;;;;;;4.59;83.77;101348.25;5006160;28;20041;-65
2023/03/01 06:31:00;;;;;;;35.78;18.60;;;;;;;4.61;83.18;101346.38;5009450;28;20037;-65
2023/03/01 06:33:25;;;;;;;33.80;18.77;;;;;;;4.64;83.24;101365.69;5008006;28;20018;-71
2023/03/01 06:35:54;;;;;;;36.67;20.52;;;;;;;4.64;83.22;101368.34;5005633;28;20064;-71
2023/03/01 06:38:19;;;;;;;36.80;20.08;;;;;;;4.65;82.97;101369.22;5004664;28;20026;-71
2023/03/01 06:40:51;;;;;;;27.15;17.42;;;;;;;4.63;83.33;101360.47;5004347;28;20033;-71
2023/03/01 06:43:16;;;;;;;31.27;18.58;;;;;;;4.61;82.46;101360.53;5003170;28;20030;-71
2023/03/01 06:45:42;;;;;;;31.15;18.33;;;;;;;4.63;81.89;101364.00;5005332;28;20080;-71
2023/03/01 06:48:08;;;;;;;28.05;17.20;;;;;;;4.66;81.42;101355.00;5008520;28;20029;-71
2023/03/01 06:50:34;;;;;;;29.58;18.05;;;;;;;4.73;80.46;101370.59;5005663;28;20480;-71
2023/03/01 06:53:00;;;;;;;31.45;17.10;;;;;;;4.70;80.28;101368.06;5007150;28;20038;-71
2023/03/01 06:55:26;;;;;;;29.40;18.05;;;;;;;4.66;80.16;101360.31;5006744;28;20435;-71
2023/03/01 06:57:59;;;;;;;27.23;16.90;;;;;;;4.69;80.67;101365.50;5006626;28;20026;-71
2023/03/01 07:00:25;;;;;;;27.23;17.58;;;;;;;4.69;80.93;101360.19;5008499;28;20038;-71
2023/03/01 07:02:51;;;;;;;27.20;16.98;;;;;;;4.70;80.59;101361.88;5006790;28;20063;-71
2023/03/01 07:05:16;;;;;;;31.45;18.70;;;;;;;4.65;80.43;101354.13;5005415;28;20117;-71
2023/03/01 07:07:42;;;;;;;34.67;18.50;;;;;;;4.70;80.07;101356.56;5008690;28;20029;-71
2023/03/01 07:10:08;;;;;;;28.15;17.45;;;;;;;4.74;80.19;101360.81;5006786;28;20350;-71
2023/03/01 07:12:34;;;;;;;28.90;17.17;;;;;;;4.63;79.80;101332.09;5004288;28;20061;-64
2023/03/01 07:14:59;;;;;;;27.05;16.52;;;;;;;4.75;79.38;101355.41;5004294;28;20514;-64
2023/03/01 07:17:25;;;;;;;28.48;16.85;;;;;;;4.77;78.47;101350.03;5004868;28;20021;-65
2023/03/01 07:19:50;;;;;;;28.50;16.90;;;;;;;4.70;78.10;101349.47;5001948;28;20934;-64
2023/03/01 07:22:16;;;;;;;27.85;15.68;;;;;;;4.71;77.62;101343.22;5000263;28;20578;-64
2023/03/01 07:24:42;;;;;;;28.33;17.15;;;;;;;4.74;77.68;101343.06;5012422;28;20105;-64
2023/03/01 07:27:07;;;;;;;25.65;17.02;;;;;;;4.80;77.06;101349.03;5007281;28;20077;-64
2023/03/01 07:29:33;;;;;;;29.45;17.33;;;;;;;4.83;77.05;101355.06;5002944;28;20558;-64
2023/03/01 07:31:58;;;;;;;28.05;17.45;;;;;;;4.88;76.88;101360.16;5009415;28;20022;-64
2023/03/01 07:34:24;;;;;;;27.52;15.85;;;;;;;4.80;75.99;101349.88;5007070;28;20026;-64
2023/03/01 07:36:49;;;;;;;29.55;17.50;;;;;;;4.77;75.95;101347.38;5006788;28;20041;-65
2023/03/01 07:39:15;;;;;;;26.88;16.38;;;;;;;4.78;75.41;101357.09;4999760;28;20040;-64
2023/03/01 07:41:40;;;;;;;23.63;15.10;;;;;;;4.83;75.28;101351.56;5004705;28;20088;-65
2023/03/01 07:44:06;;;;;;;30.70;16.52;;;;;;;4.77;75.31;101336.75;5006601;28;20030;-64
2023/03/01 07:46:32;;;;;;;29.00;16.23;;;;;;;4.82;75.69;101345.38;5005930;28;20038;-64
2023/03/01 07:48:58;;;;;;;26.85;16.13;;;;;;;4.88;75.49;101342.44;5005822;28;20065;-64
2023/03/01 07:51:24;;;;;;;26.65;16.50;;;;;;;4.93;74.85;101345.69;5006154;28;20396;-64
2023/03/01 07:53:49;;;;;;;22.63;15.30;;;;;;;5.05;75.15;101362.84;5003593;28;20049;-64
2023/03/01 07:56:18;;;;;;;26.70;15.90;;;;;;;4.98;74.57;101337.50;5005653;28;20080;-64
2023/03/01 07:58:44;;;;;;;22.83;14.98;;;;;;;4.97;74.73;101326.03;5006342;28;20703;-65
2023/03/01 08:01:15;;;;;;;26.30;15.95;;;;;;;5.15;74.76;101338.41;5001840;28;20547;-64
2023/03/01 08:03:42;;;;;;;25.08;16.20;;;;;;;5.19;74.09;101339.97;5008226;28;20025;-64
2023/03/01 08:06:09;;;;;;;24.08;14.75;;;;;;;5.18;74.01;101332.94;5007376;28;20555;-64
2023/03/01 08:08:35;;;;;;;26.17;14.60;;;;;;;5.30;73.16;101348.31;5006042;28;20071;-64
2023/03/01 08:11:03;;;;;;;26.45;14.82;;;;;;;5.22;73.11;101325.69;5008353;28;20036;-65
2023/03/01 08:13:29;;;;;;;24.23;14.50;;;;;;;5.32;72.85;101330.44;5010240;28;20117;-65
2023/03/01 08:16:01;;;;;;;25.20;15.18;;;;;;;5.37;71.73;101328.44;5009405;28;20548;-65
2023/03/01 08:18:26;;;;;;;22.20;14.40;;;;;;;5.23;71.21;101293.69;5009528;28;20026;-64
2023/03/01 08:20:51;;;;;;;23.38;14.48;;;;;;;5.34;71.32;101304.66;5009732;28;20038;-64
2023/03/01 08:23:17;;;;;;;24.13;15.00;;;;;;;5.57;71.81;101336.25;5009693;28;20099;-65
2023/03/01 08:25:42;;;;;;;22.95;14.90;;;;;;;5.58;71.52;101308.69;5011400;28;20034;-65
2023/03/01 08:28:08;;;;;;;23.15;14.52;;;;;;;5.69;70.52;101311.69;5008188;28;20057;-64
2023/03/01 08:30:34;;;;;;;23.00;14.50;;;;;;;5.76;69.63;101342.34;5007482;28;20393;-64
2023/03/01 08:32:59;;;;;;;24.73;14.95;;;;;;;5.71;69.58;101317.75;5009544;28;20037;-65
2023/03/01 08:35:24;;;;;;;21.05;13.93;;;;;;;5.81;69.44;101320.81;5010148;28;20382;-64
2023/03/01 08:37:50;;;;;;;20.45;13.35;;;;;;;5.72;69.06;101319.50;5009619;28;20048;-64
2023/03/01 08:40:15;;;;;;;21.42;12.93;;;;;;;5.83;67.78;101311.84;5008774;28;20030;-65
2023/03/01 08:42:44;;;;;;;24.42;13.88;;;;;;;5.88;67.83;101322.25;5006716;28;20029;-65
2023/03/01 08:45:11;;;;;;;22.10;13.40;;;;;;;5.90;67.75;101317.72;5007085;28;20170;-65
2023/03/01 08:47:37;;;;;;;22.98;14.00;;;;;;;5.87;68.40;101307.22;5007610;28;20026;-65
2023/03/01 08:50:04;;;;;;;21.45;13.63;;;;;;;6.00;68.25;101317.13;5009844;28;20018;-65
2023/03/01 08:52:30;;;;;;;20.92;14.15;;;;;;;6.10;68.29;101315.69;5005688;28;20054;-65
2023/03/01 08:54:56;;;;;;;21.45;13.73;;;;;;;6.12;68.25;101319.16;5008726;28;20030;-65
2023/03/01 08:57:21;;;;;;;20.15;13.02;;;;;;;6.14;67.95;101311.94;5009436;28;20038;-65
2023/03/01 08:59:47;;;;;;;19.88;12.52;;;;;;;5.96;67.70;101262.31;5009281;28;20036;-64
2023/03/01 09:02:17;;;;;;;20.90;13.85;;;;;;;6.14;67.77;101276.44;5009142;28;20026;-65
2023/03/01 09:04:43;;;;;;;21.27;13.98;;;;;;;6.24;66.69;101291.84;5009486;28;20034;-65
2023/03/01 09:07:09;;;;;;;19.75;12.57;;;;;;;6.26;66.77;101287.28;5008957;28;20041;-65
2023/03/01 09:09:35;;;;;;;22.02;13.63;;;;;;;6.22;66.46;101269.75;5008779;28;20060;-65
2023/03/01 09:12:01;;;;;;;22.05;12.80;;;;;;;6.23;66.19;101268.81;5009308;28;20058;-65
2023/03/01 09:14:26;;;;;;;21.17;12.82;;;;;;;6.24;65.82;101259.91;5008736;28;20065;-65
2023/03/01 09:16:52;;;;;;;18.60;12.10;;;;;;;6.33;66.14;101267.38;5007363;28;20061;-65
2023/03/01 09:19:17;;;;;;;20.92;13.50;;;;;;;6.53;65.65;101276.91;5008714;28;20030;-66
2023/03/01 09:21:52;;;;;;;20.67;12.60;;;;;;;6.66;65.57;101278.81;5008878;28;20038;-65
2023/03/01 09:24:19;;;;;;;22.20;13.00;;;;;;;6.74;65.27;101275.72;5007278;28;20050;-65
2023/03/01 09:26:48;;;;;;;19.73;12.95;;;;;;;6.80;64.29;101276.22;5008468;28;20040;-65
2023/03/01 09:29:14;;;;;;;19.27;11.80;;;;;;;6.91;63.82;101278.28;5007186;28;20030;-65
2023/03/01 09:31:40;;;;;;;21.00;13.18;;;;;;;6.89;64.31;101257.03;5007681;28;20640;-65
2023/03/01 09:34:07;;;;;;;17.48;12.10;;;;;;;7.02;63.29;101267.84;5009387;28;20029;-65
2023/03/01 09:36:33;;;;;;;16.48;11.70;;;;;;;7.10;62.98;101259.38;5008277;28;20036;-65
2023/03/01 09:38:59;;;;;;;17.17;11.23;;;;;;;7.11;62.87;101261.09;5009585;28;20124;-65
2023/03/01 09:41:51;;;;;;;19.42;12.35;;;;;;;7.29;62.16;101265.38;5007841;28;20140;-65
2023/03/01 09:44:29;;;;;;;21.17;12.15;;;;;;;7.22;62.59;101250.69;5007547;28;20038;-65
2023/03/01 09:46:56;;;;;;;18.35;12.23;;;;;;;7.28;62.81;101261.84;5007951;28;20118;-64
2023/03/01 09:49:25;;;;;;;16.70;11.73;;;;;;;7.20;62.75;101236.56;5008472;28;20101;-66
2023/03/01 09:52:19;;;;;;;20.00;11.73;;;;;;;7.27;62.84;101236.09;5006350;28;20022;-65
2023/03/01 09:54:45;;;;;;;17.70;11.52;;;;;;;7.31;62.71;101239.44;5001833;28;20064;-65
2023/03/01 09:57:47;;;;;;;16.85;11.75;;;;;;;7.34;63.20;101226.78;5008428;28;20014;-65
2023/03/01 10:00:19;;;;;;;19.67;12.32;;;;;;;7.57;61.83;101234.25;5001752;28;20116;-66
2023/03/01 10:02:52;;;;;;;16.15;11.18;;;;;;;7.60;61.75;101227.84;5003288;28;20516;-65
2023/03/01 10:05:43;;;;;;;16.58;11.18;;;;;;;7.69;61.88;101227.31;5007955;28;20120;-66
2023/03/01 10:08:44;;;;;;;18.42;12.48;;;;;;;7.75;62.27;101232.28;5005975;28;20038;-66
2023/03/01 10:11:21;;;;;;;19.98;12.32;;;;;;;7.88;62.06;101238.56;5006184;28;20042;-65
2023/03/01 10:13:54;;;;;;;17.50;11.20;;;;;;;7.92;60.88;101224.06;5006716;28;20029;-65
2023/03/01 10:16:40;;;;;;;16.73;10.97;;;;;;;7.83;61.10;101205.97;5008325;28;20045;-66
2023/03/01 10:19:12;;;;;;;14.45;10.60;;;;;;;7.88;61.07;101210.06;5006429;28;20048;-65
2023/03/01 10:21:44;;;;;;;15.65;10.35;;;;;;;8.03;60.97;101243.81;5007761;28;20022;-65
2023/03/01 10:24:20;;;;;;;19.10;11.27;;;;;;;7.98;61.37;101218.34;5005998;28;20125;-65
2023/03/01 10:26:49;;;;;;;17.90;11.48;;;;;;;8.10;61.05;101231.78;5004976;28;20096;-65
2023/03/01 10:29:14;;;;;;;17.42;10.90;;;;;;;8.16;61.60;101227.88;5006257;28;20132;-65
2023/03/01 10:31:48;;;;;;;15.40;11.55;;;;;;;8.21;61.52;101231.09;5008138;28;20776;-65
2023/03/01 10:34:17;;;;;;;15.20;11.02;;;;;;;8.22;61.06;101214.16;5005745;28;20550;-65
2023/03/01 10:36:47;;;;;;;18.95;10.75;;;;;;;8.29;60.48;101215.47;5005799;28;20046;-65
2023/03/01 10:39:18;;;;;;;17.15;11.30;;;;;;;8.27;61.02;101228.94;5006832;28;20095;-65
2023/03/01 10:42:23;;;;;;;14.77;10.73;;;;;;;8.31;61.14;101210.88;5004516;28;20177;-65
2023/03/01 10:44:49;;;;;;;16.73;11.13;;;;;;;8.31;60.73;101205.53;5004946;28;20091;-66
2023/03/01 10:47:24;;;;;;;19.92;12.23;;;;;;;8.32;60.60;101188.56;5006142;28;20761;-65
2023/03/01 10:49:57;;;;;;;16.30;11.15;;;;;;;8.48;60.03;101203.50;5003617;28;20038;-66
2023/03/01 10:52:28;;;;;;;16.05;11.00;;;;;;;8.44;60.24;101190.41;5002206;28;20030;-65
2023/03/01 10:55:00;;;;;;;16.02;11.02;;;;;;;8.44;60.31;101174.38;5006491;28;20056;-65
2023/03/01 10:57:32;;;;;;;15.60;11.20;;;;;;;8.56;60.29;101198.50;5005894;28;20029;-66
2023/03/01 11:00:23;;;;;;;15.77;10.73;;;;;;;8.62;60.26;101198.13;5007177;28;20095;-66
2023/03/01 11:03:11;;;;;;;18.02;10.85;;;;;;;8.69;61.01;101201.22;5005037;28;20344;-65
2023/03/01 11:05:36;;;;;;;19.17;11.15;;;;;;;8.74;60.49;101193.78;5006352;28;20069;-66
2023/03/01 11:08:03;;;;;;;21.55;11.90;;;;;;;8.75;59.91;101198.16;5006368;28;20091;-66
2023/03/01 11:10:35;;;;;;;16.13;11.13;;;;;;;8.39;59.72;101115.03;5005954;28;20037;-65
2023/03/01 11:13:18;;;;;;;16.08;10.32;;;;;;;8.82;60.16;101183.41;5002605;28;20021;-65
2023/03/01 11:16:03;;;;;;;14.43;9.90;;;;;;;8.88;59.92;101185.69;5008053;28;20092;-66
2023/03/01 11:18:29;;;;;;;;;;;;;;;8.92;59.92;101187.19;5006141;28;21955;-65
2023/03/01 11:20:55;;;;;;;17.13;10.38;;;;;;;8.86;59.97;101163.50;5007670;28;20339;-65
2023/03/01 11:23:22;;;;;;;14.35;10.57;;;;;;;8.93;59.97;101171.03;5006935;28;20389;-66